ジッダ の空港の天気 - METARとTAF

キング・アブドゥルアズィーズ国際空港(ジッダ) ( OEJN / JED ) - サウジアラビア ジッダ
飛行場実況気象(Metar)
観測時間07/29 05:00 AST (07/29 02:00 UTC)
風向・風速南 2m/s
視程10km以上
天気現象
全天の8割程度の雲 雲底高度 1220m
気温32℃
湿度67%
気圧1001hPa
METAROEJN 290200Z 19003KT 9999 BKN040 32/25 Q1001 NOSIG
過去の天気等 Google飛行場航空写真 Wunderground天気予報

過去48時間のMETAR

飛行場予報(TAF)
発表時間: 7/29 02:00 AST (7/28 23:00 UTC)
予報対象時間: 29日3時 AST ~ 30日9時 AST
風向・風速不定 2m/s
視程10km以上
全天の4割程度の雲 雲底高度 1220m
29日3時 AST ~ 29日8時 AST に 確率 30% で一時的に
少しの積乱雲 雲底高度 1070m
29日9時 AST ~ 29日11時 AST に徐々に
風向・風速西南西 6m/s
TAF OEJN 282300Z 2900/3006 VRB03KT 9999 SCT040
PROB30 TEMPO 2900/2905 FEW035CB
BECMG 2906/2908 24012KT